Santo Domingo, Dominican Republic
Current Conditions -  °F | °C
As of 6:00 PM on Tuesday 21 Oct 2014 (Local Time) from MDSD Reporting Station
Few Clouds Few Clouds  
Wind Chill: 29°   Ceiling: Unl
Heat Index: 32°   Visibility: 6mi
Dew Point: 22°   Wind: 5mph
Humidity: 66%   Direction: 160°SSE
Pressure: 29.85"   Gusts: NA
Location:  18.48°N, 69.91°W
Report Text: MDSD 212200Z 16004KT 9999 FEW018CB/ FEW020 29/22 Q1011 CB/NE
Loading
Personal Weather Stations






























Interactive Weather Map
Tropical Storm Tracking
New forecast layout! Learn more

10-Day Weather Forecast

Advertisements
Track Severe Weather on mobile